createdAt,value
2022-09-23T00:02:18.273Z,99773.00
2022-09-23T00:04:48.056Z,99766.19
2022-09-23T00:07:19.196Z,99772.22
2022-09-23T00:09:48.968Z,99763.09
2022-09-23T00:12:19.192Z,99766.34
2022-09-23T00:14:49.050Z,99764.03
2022-09-23T00:17:18.803Z,99764.03
2022-09-23T00:19:49.373Z,99765.03
2022-09-23T00:22:20.535Z,99765.84
2022-09-23T00:24:50.730Z,99760.75
2022-09-23T00:27:21.109Z,99761.91
2022-09-23T00:29:50.883Z,99754.59
2022-09-23T00:32:20.596Z,99754.59
2022-09-23T00:34:51.538Z,99753.03
2022-09-23T00:37:22.744Z,99750.66
2022-09-23T00:39:52.543Z,99754.44
2022-09-23T00:42:23.485Z,99764.59
2022-09-23T00:44:55.434Z,99739.63
2022-09-23T00:47:32.377Z,99759.97
2022-09-23T00:50:06.815Z,99760.22
2022-09-23T00:52:38.724Z,99763.53
2022-09-23T00:55:17.171Z,99768.22
2022-09-23T00:57:48.743Z,99769.25
2022-09-23T01:00:18.498Z,99762.88
2022-09-23T01:02:48.405Z,99761.63
2022-09-23T01:05:19.255Z,99762.47
2022-09-23T01:07:51.296Z,99757.41
2022-09-23T01:10:21.538Z,99755.69
2022-09-23T01:13:04.947Z,99750.63
2022-09-23T01:15:45.045Z,99756.38
2022-09-23T01:18:32.031Z,99753.34
2022-09-23T01:21:43.299Z,99751.91
2022-09-23T01:24:54.342Z,99754.31
2022-09-23T01:27:51.717Z,99753.72
2022-09-23T01:30:44.092Z,99754.19
2022-09-23T01:33:21.194Z,99752.47
2022-09-23T01:36:12.813Z,99751.78
2022-09-23T01:38:48.484Z,99753.31
2022-09-23T01:41:34.733Z,99764.25
2022-09-23T01:44:09.051Z,99758.22
2022-09-23T01:46:45.075Z,99756.59
2022-09-23T01:49:21.320Z,99754.22
2022-09-23T01:51:58.242Z,99757.00
2022-09-23T01:54:38.610Z,99743.06
2022-09-23T01:57:12.951Z,99748.94
2022-09-23T01:59:52.164Z,99743.47
2022-09-23T02:02:29.285Z,99757.84
2022-09-23T02:05:04.190Z,99758.72
2022-09-23T02:07:41.012Z,99763.53
2022-09-23T02:10:16.707Z,99767.34
2022-09-23T02:12:49.787Z,99767.16
2022-09-23T02:15:24.623Z,99765.59
2022-09-23T02:18:00.626Z,99771.59
2022-09-23T02:20:34.650Z,99776.94
2022-09-23T02:23:09.736Z,99768.91
2022-09-23T02:25:59.218Z,99771.09
2022-09-23T02:28:35.009Z,99769.59
2022-09-23T02:31:11.994Z,99762.13
2022-09-23T02:33:47.428Z,99766.88
2022-09-23T02:36:27.039Z,99756.66
2022-09-23T02:38:59.324Z,99760.75
2022-09-23T02:41:36.848Z,99765.13
2022-09-23T02:44:10.047Z,99762.75
2022-09-23T02:46:43.288Z,99767.13
2022-09-23T02:49:18.280Z,99761.34
2022-09-23T02:51:48.217Z,99761.34
2022-09-23T02:54:20.162Z,99757.81
2022-09-23T02:56:50.559Z,99762.84
2022-09-23T02:59:22.735Z,99764.19
2022-09-23T03:02:15.012Z,99756.19
2022-09-23T03:04:55.028Z,99756.06
2022-09-23T03:07:33.378Z,99756.63
2022-09-23T03:10:10.722Z,99742.44
2022-09-23T03:12:48.061Z,99761.41
2022-09-23T03:15:27.573Z,99760.16
2022-09-23T03:18:02.627Z,99686.88
2022-09-23T03:20:38.521Z,99776.72
2022-09-23T03:23:11.754Z,99769.94
2022-09-23T03:25:44.776Z,99771.09
2022-09-23T03:28:17.584Z,99766.28
2022-09-23T03:30:47.931Z,99768.84
2022-09-23T03:33:19.549Z,99759.38
2022-09-23T03:36:12.446Z,99770.00
2022-09-23T03:38:46.560Z,99762.38
2022-09-23T03:41:19.688Z,99772.97
2022-09-23T03:43:53.345Z,99776.50
2022-09-23T03:46:27.543Z,99776.81
2022-09-23T03:49:05.466Z,99778.84
2022-09-23T03:51:36.573Z,99774.94
2022-09-23T03:54:06.684Z,99771.75
2022-09-23T03:56:37.695Z,99780.31
2022-09-23T03:59:08.213Z,99774.25
2022-09-23T04:01:37.982Z,99781.09
2022-09-23T04:04:07.847Z,99787.75
2022-09-23T04:06:39.259Z,99757.03
2022-09-23T04:09:09.734Z,99785.94
2022-09-23T04:11:39.881Z,99789.66
2022-09-23T04:14:10.457Z,99786.63
2022-09-23T04:16:40.314Z,99788.41
2022-09-23T04:19:11.755Z,99794.47
2022-09-23T04:21:44.669Z,99797.72
2022-09-23T04:24:15.781Z,99813.81
2022-09-23T04:26:46.068Z,99806.13
2022-09-23T04:29:15.898Z,99807.63
2022-09-23T04:31:46.035Z,99803.13
2022-09-23T04:34:17.439Z,99819.63
2022-09-23T04:36:50.679Z,99804.56
2022-09-23T04:39:25.404Z,99819.13
2022-09-23T04:41:55.178Z,99814.19
2022-09-23T04:44:28.138Z,99813.63
2022-09-23T04:46:58.512Z,99820.59
2022-09-23T04:49:32.475Z,99819.88
2022-09-23T04:52:05.786Z,99811.91
2022-09-23T04:54:35.634Z,99819.13
2022-09-23T04:57:06.140Z,99808.19
2022-09-23T04:59:35.884Z,99818.63
2022-09-23T05:02:11.291Z,99825.13
2022-09-23T05:04:41.830Z,99822.59
2022-09-23T05:07:13.920Z,99823.28
2022-09-23T05:09:43.684Z,99825.69
2022-09-23T05:12:18.086Z,99821.31
2022-09-23T05:14:48.068Z,99823.81
2022-09-23T05:17:17.922Z,99824.84
2022-09-23T05:19:48.425Z,99828.63
2022-09-23T05:22:19.690Z,99824.44
2022-09-23T05:24:49.483Z,99826.38
2022-09-23T05:27:19.364Z,99826.56
2022-09-23T05:29:50.466Z,99834.66
2022-09-23T05:32:20.387Z,99831.91
2022-09-23T05:34:50.195Z,99828.41
2022-09-23T05:37:21.325Z,99828.25
2022-09-23T05:39:51.075Z,99828.97
2022-09-23T05:42:21.179Z,99824.16
2022-09-23T05:44:50.970Z,99819.84
2022-09-23T05:47:20.691Z,99826.72
2022-09-23T05:49:59.606Z,99820.09
2022-09-23T05:52:31.563Z,99827.09
2022-09-23T05:55:02.098Z,99825.00
2022-09-23T05:57:32.748Z,99824.28
2022-09-23T06:00:03.254Z,99822.19
2022-09-23T06:02:33.220Z,99828.56
2022-09-23T06:05:03.053Z,99820.66
2022-09-23T06:07:34.197Z,99825.59
2022-09-23T06:10:05.056Z,99819.81
2022-09-23T06:12:35.292Z,99823.59
2022-09-23T06:15:07.067Z,99820.38
2022-09-23T06:17:36.885Z,99818.38
2022-09-23T06:20:07.648Z,99822.19
2022-09-23T06:22:40.053Z,99822.03
2022-09-23T06:25:12.294Z,99818.63
2022-09-23T06:27:42.079Z,99823.13
2022-09-23T06:30:14.075Z,99813.13
2022-09-23T06:32:49.875Z,99825.66
2022-09-23T06:35:27.186Z,99819.41
2022-09-23T06:37:59.108Z,99826.47
2022-09-23T06:40:28.984Z,99822.38
2022-09-23T06:42:59.477Z,99820.50
2022-09-23T06:45:29.752Z,99822.72
2022-09-23T06:47:59.587Z,99821.53
2022-09-23T06:50:30.959Z,99823.50
2022-09-23T06:53:02.241Z,99825.13
2022-09-23T06:55:32.819Z,99829.69
2022-09-23T06:58:02.951Z,99827.31
2022-09-23T07:00:32.727Z,99830.03
2022-09-23T07:03:02.775Z,99842.44
2022-09-23T07:05:32.870Z,99834.63
2022-09-23T07:08:09.609Z,99837.13
2022-09-23T07:10:39.498Z,99830.03
2022-09-23T07:13:12.946Z,99838.22
2022-09-23T07:15:50.796Z,99846.56
2022-09-23T07:18:23.956Z,99848.88
2022-09-23T07:20:54.655Z,99846.56
2022-09-23T07:23:28.537Z,99852.91
2022-09-23T07:26:00.265Z,99862.28
2022-09-23T07:28:30.064Z,99859.00
2022-09-23T07:31:06.661Z,99852.19
2022-09-23T07:33:37.853Z,99859.63
2022-09-23T07:36:10.159Z,99856.81
2022-09-23T07:38:45.421Z,99860.16
2022-09-23T07:41:17.843Z,99859.81
2022-09-23T07:43:49.004Z,99858.53
2022-09-23T07:46:19.183Z,99859.81
2022-09-23T07:48:49.310Z,99853.06
2022-09-23T07:51:21.977Z,99855.31
2022-09-23T07:53:55.673Z,99854.69
2022-09-23T07:56:28.164Z,99858.63
2022-09-23T07:59:01.815Z,99847.25
2022-09-23T08:01:34.192Z,99853.19
2022-09-23T08:04:05.734Z,99846.94
2022-09-23T08:06:36.848Z,99846.13
2022-09-23T08:09:11.452Z,99837.59
2022-09-23T08:11:42.076Z,99846.78
2022-09-23T08:14:13.688Z,99838.44
2022-09-23T08:16:45.377Z,99848.09
2022-09-23T08:19:15.985Z,99846.94
2022-09-23T08:21:46.723Z,99840.75
2022-09-23T08:24:20.920Z,99838.47
2022-09-23T08:26:53.422Z,99837.16
2022-09-23T08:29:26.388Z,99811.56
2022-09-23T08:31:56.537Z,99829.59
2022-09-23T08:34:29.135Z,99805.06
2022-09-23T08:36:59.235Z,99810.28
2022-09-23T08:39:31.730Z,99797.69
2022-09-23T08:42:15.712Z,99791.63
2022-09-23T08:44:50.745Z,99811.50
2022-09-23T08:47:24.248Z,99803.41
2022-09-23T08:50:01.169Z,99801.56
2022-09-23T08:52:39.499Z,99802.09
2022-09-23T08:55:16.349Z,99796.19
2022-09-23T08:58:23.939Z,99798.72
2022-09-23T09:01:00.832Z,99801.56
2022-09-23T09:03:36.762Z,99798.22
2022-09-23T09:06:13.559Z,99795.84
2022-09-23T09:08:45.607Z,99783.38
2022-09-23T09:11:19.294Z,99779.69
2022-09-23T09:13:58.392Z,99785.59
2022-09-23T09:17:01.183Z,99767.56
2022-09-23T09:19:57.976Z,99785.75
2022-09-23T09:22:43.299Z,99792.66
2022-09-23T09:25:25.577Z,99803.75
2022-09-23T09:27:58.884Z,99807.97
2022-09-23T09:30:29.350Z,99801.56
2022-09-23T09:33:03.847Z,99789.78
2022-09-23T09:35:39.294Z,99726.16
2022-09-23T09:38:09.372Z,99793.16
2022-09-23T09:40:47.737Z,99806.63
2022-09-23T09:43:23.294Z,99801.94
2022-09-23T09:46:05.171Z,99801.22
2022-09-23T09:48:39.283Z,99796.19
2022-09-23T09:51:21.627Z,99795.19
2022-09-23T09:53:53.016Z,99803.75
2022-09-23T09:56:27.344Z,99782.00
2022-09-23T09:59:02.197Z,99790.91
2022-09-23T10:01:33.912Z,99803.22
2022-09-23T10:04:07.228Z,99802.69
2022-09-23T10:06:37.520Z,99798.66
2022-09-23T10:09:13.967Z,99791.38
2022-09-23T10:12:02.888Z,99801.34
2022-09-23T10:14:34.374Z,99803.81
2022-09-23T10:17:06.537Z,99797.66
2022-09-23T10:19:39.472Z,99796.38
2022-09-23T10:22:19.755Z,99789.34
2022-09-23T10:24:52.674Z,99783.53
2022-09-23T10:27:31.502Z,99773.97
2022-09-23T10:30:06.645Z,99772.47
2022-09-23T10:32:40.555Z,99761.66
2022-09-23T10:35:16.309Z,99786.16
2022-09-23T10:37:49.487Z,99781.94
2022-09-23T10:40:41.793Z,99777.56
2022-09-23T10:43:43.970Z,99773.84
2022-09-23T10:46:42.621Z,99769.81
2022-09-23T10:49:38.823Z,99767.25
2022-09-23T10:52:38.135Z,99772.00
2022-09-23T10:55:19.226Z,99765.44
2022-09-23T10:58:12.070Z,99762.88
2022-09-23T11:00:51.860Z,99757.25
2022-09-23T11:03:58.382Z,99767.59
2022-09-23T11:06:38.587Z,99755.56
2022-09-23T11:09:24.183Z,99757.47
2022-09-23T11:12:08.396Z,99745.06
2022-09-23T11:14:54.954Z,99745.81
2022-09-23T11:17:43.582Z,99736.75
2022-09-23T11:20:34.704Z,99737.91
2022-09-23T11:23:27.553Z,99734.47
2022-09-23T11:26:07.027Z,99727.22
2022-09-23T11:29:00.201Z,99724.19
2022-09-23T11:31:38.720Z,99726.28
2022-09-23T11:34:30.246Z,99713.31
2022-09-23T11:37:05.955Z,99716.94
2022-09-23T11:39:43.481Z,99717.69
2022-09-23T11:42:21.894Z,99709.31
2022-09-23T11:44:57.798Z,99698.59
2022-09-23T11:47:35.344Z,99699.13
2022-09-23T11:50:17.795Z,99696.16
2022-09-23T11:52:53.559Z,99694.66
2022-09-23T11:55:32.442Z,99694.56
2022-09-23T11:58:21.740Z,99680.13
2022-09-23T12:01:01.229Z,99700.09
2022-09-23T12:03:45.540Z,99689.91
2022-09-23T12:06:19.333Z,99674.78
2022-09-23T12:08:55.351Z,99684.47
2022-09-23T12:11:38.861Z,99691.59
2022-09-23T12:14:19.469Z,99689.06
2022-09-23T12:17:07.718Z,99683.84
2022-09-23T12:19:58.530Z,99693.38
2022-09-23T12:22:47.496Z,99685.88
2022-09-23T12:25:34.955Z,99685.31
2022-09-23T12:28:13.464Z,99679.06
2022-09-23T12:30:44.489Z,99683.47
2022-09-23T12:33:24.844Z,99684.50
2022-09-23T12:35:56.397Z,99687.59
2022-09-23T12:38:33.270Z,99677.72
2022-09-23T12:41:09.951Z,99680.03
2022-09-23T12:43:53.942Z,99684.50
2022-09-23T12:46:26.046Z,99685.00
2022-09-23T12:49:03.897Z,99683.41
2022-09-23T12:51:35.874Z,99674.56
2022-09-23T12:54:24.812Z,99682.09
2022-09-23T12:57:02.900Z,99673.06
2022-09-23T12:59:55.326Z,99673.13
2022-09-23T13:02:29.886Z,99671.84
2022-09-23T13:05:27.772Z,99681.84
2022-09-23T13:08:04.211Z,99668.97
2022-09-23T13:10:39.495Z,99677.63
2022-09-23T13:13:16.444Z,99681.25
2022-09-23T13:15:48.392Z,99678.72
2022-09-23T13:18:46.155Z,99683.50
2022-09-23T13:21:39.872Z,99680.91
2022-09-23T13:24:19.219Z,99677.91
2022-09-23T13:26:52.123Z,99679.84
2022-09-23T13:29:26.924Z,99677.31
2022-09-23T13:31:58.766Z,99678.75
2022-09-23T13:34:33.618Z,99679.66
2022-09-23T13:37:22.036Z,99679.72
2022-09-23T13:39:52.716Z,99682.28
2022-09-23T13:42:28.217Z,99666.97
2022-09-23T13:44:59.120Z,99657.44
2022-09-23T13:47:32.163Z,99664.03
2022-09-23T13:50:02.127Z,99667.28
2022-09-23T13:52:34.557Z,99668.94
2022-09-23T13:55:04.428Z,99672.97
2022-09-23T13:57:35.721Z,99673.31
2022-09-23T14:00:18.301Z,99666.59
2022-09-23T14:02:49.882Z,99671.22
2022-09-23T14:05:24.560Z,99672.25
2022-09-23T14:07:56.053Z,99680.53
2022-09-23T14:10:27.758Z,99665.72
2022-09-23T14:12:59.322Z,99664.56
2022-09-23T14:15:30.616Z,99668.59
2022-09-23T14:18:06.322Z,99660.31
2022-09-23T14:20:46.927Z,99656.56
2022-09-23T14:23:17.289Z,99658.75
2022-09-23T14:25:47.977Z,99661.78
2022-09-23T14:28:20.107Z,99664.81
2022-09-23T14:30:52.359Z,99665.53
2022-09-23T14:33:28.536Z,99662.16
2022-09-23T14:36:06.658Z,99659.28
2022-09-23T14:38:51.140Z,99656.41
2022-09-23T14:41:24.108Z,99658.63
2022-09-23T14:43:58.348Z,99661.97
2022-09-23T14:46:29.693Z,99662.03
2022-09-23T14:49:05.694Z,99643.41
2022-09-23T14:51:43.179Z,99678.41
2022-09-23T14:54:34.417Z,99679.06
2022-09-23T14:57:19.925Z,99681.56
2022-09-23T14:59:53.294Z,99676.06
2022-09-23T15:02:31.364Z,99674.34
2022-09-23T15:05:18.741Z,99669.09
2022-09-23T15:07:52.195Z,99680.38
2022-09-23T15:10:27.670Z,99676.69
2022-09-23T15:13:06.341Z,99667.78
2022-09-23T15:15:36.954Z,99688.66
2022-09-23T15:18:09.175Z,99688.16
2022-09-23T15:20:40.620Z,99690.38
2022-09-23T15:23:34.154Z,99702.00
2022-09-23T15:26:07.273Z,99708.44
2022-09-23T15:28:37.005Z,99704.03
2022-09-23T15:31:09.206Z,99702.53
2022-09-23T15:33:39.437Z,99706.75
2022-09-23T15:36:17.821Z,99712.50
2022-09-23T15:38:48.648Z,99708.75
2022-09-23T15:41:18.558Z,99717.19
2022-09-23T15:43:48.768Z,99715.72
2022-09-23T15:46:22.473Z,99714.22
2022-09-23T15:48:58.679Z,99724.31
2022-09-23T15:51:30.534Z,99728.03
2022-09-23T15:54:01.709Z,99727.38
2022-09-23T15:56:31.749Z,99725.38
2022-09-23T15:59:02.878Z,99727.25
2022-09-23T16:01:35.944Z,99727.25
2022-09-23T16:04:06.429Z,99715.13
2022-09-23T16:06:37.756Z,99726.56
2022-09-23T16:09:07.895Z,99721.50
2022-09-23T16:11:39.027Z,99723.38
2022-09-23T16:14:14.153Z,99724.91
2022-09-23T16:16:47.082Z,99723.03
2022-09-23T16:19:26.908Z,99727.78
2022-09-23T16:21:58.434Z,99726.25
2022-09-23T16:24:29.268Z,99729.13
2022-09-23T16:27:00.777Z,99739.59
2022-09-23T16:29:30.668Z,99744.31
2022-09-23T16:32:01.684Z,99740.63
2022-09-23T16:34:31.488Z,99751.41
2022-09-23T16:37:04.806Z,99744.78
2022-09-23T16:39:35.297Z,99748.00
2022-09-23T16:42:05.311Z,99753.56
2022-09-23T16:44:36.642Z,99758.47
2022-09-23T16:47:07.127Z,99758.81
2022-09-23T16:49:36.890Z,99760.50
2022-09-23T16:52:09.257Z,99772.44
2022-09-23T16:54:39.891Z,99781.38
2022-09-23T16:57:13.209Z,99785.22
2022-09-23T17:00:14.965Z,99777.84
2022-09-23T17:03:02.359Z,99777.16
2022-09-23T17:05:32.122Z,99789.47
2022-09-23T17:08:04.117Z,99793.34
2022-09-23T17:10:34.045Z,99797.03
2022-09-23T17:13:04.723Z,99799.38
2022-09-23T17:15:36.990Z,99807.47
2022-09-23T17:18:07.833Z,99801.22
2022-09-23T17:20:38.732Z,99804.63
2022-09-23T17:23:09.936Z,99802.09
2022-09-23T17:25:39.641Z,99804.44
2022-09-23T17:28:09.636Z,99809.00
2022-09-23T17:30:39.622Z,99810.69
2022-09-23T17:33:10.859Z,99805.47
2022-09-23T17:35:40.845Z,99813.69
2022-09-23T17:38:12.878Z,99819.41
2022-09-23T17:40:42.679Z,99825.50
2022-09-23T17:43:12.510Z,99832.72
2022-09-23T17:45:43.128Z,99827.31
2022-09-23T17:48:14.362Z,99838.94
2022-09-23T17:50:44.043Z,99843.66
2022-09-23T17:53:16.866Z,99843.81
2022-09-23T17:55:55.973Z,99843.50
2022-09-23T17:58:27.791Z,99840.28
2022-09-23T18:00:58.490Z,99847.50
2022-09-23T18:03:30.163Z,99847.16
2022-09-23T18:06:08.057Z,99852.03
2022-09-23T18:08:40.503Z,99852.88
2022-09-23T18:11:16.606Z,99860.63
2022-09-23T18:13:51.374Z,99864.47
2022-09-23T18:16:24.177Z,99862.28
2022-09-23T18:18:54.477Z,99861.25
2022-09-23T18:21:26.174Z,99862.06
2022-09-23T18:24:21.327Z,99866.75
2022-09-23T18:26:49.402Z,99860.69
2022-09-23T18:29:20.487Z,99865.63
2022-09-23T18:31:51.205Z,99877.31
2022-09-23T18:34:21.336Z,99868.41
2022-09-23T18:36:51.280Z,99881.53
2022-09-23T18:39:22.719Z,99877.38
2022-09-23T18:41:52.825Z,99875.84
2022-09-23T18:44:23.655Z,99882.69
2022-09-23T18:46:53.631Z,99885.00
2022-09-23T18:49:40.731Z,99888.72
2022-09-23T18:52:10.631Z,99887.50
2022-09-23T18:54:42.757Z,99880.59
2022-09-23T18:57:14.862Z,99884.31
2022-09-23T18:59:47.458Z,99886.53
2022-09-23T19:02:17.478Z,99881.78
2022-09-23T19:04:47.760Z,99888.63
2022-09-23T19:07:17.844Z,99886.94
2022-09-23T19:09:49.113Z,99888.41
2022-09-23T19:12:19.051Z,99886.03
2022-09-23T19:14:49.035Z,99883.41
2022-09-23T19:17:19.238Z,99890.81
2022-09-23T19:19:50.242Z,99888.94
2022-09-23T19:22:20.753Z,99890.13
2022-09-23T19:24:52.232Z,99893.19
2022-09-23T19:27:23.701Z,99894.03
2022-09-23T19:29:57.996Z,99903.63
2022-09-23T19:32:27.982Z,99899.63
2022-09-23T19:34:59.948Z,99904.78
2022-09-23T19:37:29.832Z,99910.97
2022-09-23T19:40:01.144Z,99906.00
2022-09-23T19:42:30.998Z,99906.91
2022-09-23T19:45:00.937Z,99909.19
2022-09-23T19:47:31.177Z,99898.91
2022-09-23T19:50:01.072Z,99906.41
2022-09-23T19:52:31.429Z,99901.88
2022-09-23T19:55:02.933Z,99902.81
2022-09-23T19:57:34.118Z,99906.63
2022-09-23T20:00:04.736Z,99905.81
2022-09-23T20:02:34.572Z,99907.72
2022-09-23T20:05:04.491Z,99910.91
2022-09-23T20:07:34.425Z,99910.16
2022-09-23T20:10:06.957Z,99913.91
2022-09-23T20:12:37.534Z,99915.69
2022-09-23T20:15:09.172Z,99914.88
2022-09-23T20:17:40.083Z,99915.47
2022-09-23T20:20:13.084Z,99907.03
2022-09-23T20:22:43.145Z,99908.66
2022-09-23T20:25:14.346Z,99915.81
2022-09-23T20:27:43.066Z,99912.13
2022-09-23T20:30:13.286Z,99916.25
2022-09-23T20:32:44.914Z,99903.69
2022-09-23T20:35:16.368Z,99919.91
2022-09-23T20:37:46.342Z,99916.56
2022-09-23T20:40:17.786Z,99915.28
2022-09-23T20:42:49.073Z,99912.69
2022-09-23T20:45:18.997Z,99916.69
2022-09-23T20:47:49.749Z,99913.88
2022-09-23T20:50:19.615Z,99926.09
2022-09-23T20:52:49.304Z,99920.88
2022-09-23T20:55:20.489Z,99923.09
2022-09-23T20:57:55.320Z,99924.38
2022-09-23T21:00:25.158Z,99927.28
2022-09-23T21:02:54.992Z,99934.88
2022-09-23T21:05:24.772Z,99932.78
2022-09-23T21:07:54.729Z,99923.19
2022-09-23T21:10:26.053Z,99931.09
2022-09-23T21:12:56.082Z,99934.75
2022-09-23T21:15:26.051Z,99929.69
2022-09-23T21:17:55.790Z,99932.25
2022-09-23T21:20:25.645Z,99929.00
2022-09-23T21:22:56.365Z,99934.78
2022-09-23T21:25:28.973Z,99927.47
2022-09-23T21:28:01.861Z,99927.59
2022-09-23T21:30:31.886Z,99932.41
2022-09-23T21:33:02.098Z,99928.84
2022-09-23T21:35:31.975Z,99925.19
2022-09-23T21:38:01.877Z,99923.78
2022-09-23T21:40:50.823Z,99930.41
2022-09-23T21:43:20.832Z,99923.53
2022-09-23T21:45:50.927Z,99929.44
2022-09-23T21:48:21.006Z,99933.53
2022-09-23T21:50:55.542Z,99927.03
2022-09-23T21:53:25.422Z,99933.97
2022-09-23T21:56:01.826Z,99936.06
2022-09-23T21:58:32.248Z,99938.59
2022-09-23T22:01:02.408Z,99935.66
2022-09-23T22:03:32.289Z,99930.28
2022-09-23T22:06:04.785Z,99930.28
2022-09-23T22:08:37.089Z,99924.34
2022-09-23T22:11:30.428Z,99928.00
2022-09-23T22:14:02.483Z,99923.78
2022-09-23T22:16:32.417Z,99920.41
2022-09-23T22:19:07.476Z,99912.06
2022-09-23T22:21:40.976Z,99886.41
2022-09-23T22:24:12.919Z,99879.50
2022-09-23T22:26:45.701Z,99906.00
2022-09-23T22:29:34.582Z,99904.31
2022-09-23T22:32:21.034Z,99919.84
2022-09-23T22:34:52.645Z,99924.66
2022-09-23T22:37:27.111Z,99921.84
2022-09-23T22:39:57.086Z,99934.38
2022-09-23T22:42:30.979Z,99940.59
2022-09-23T22:45:00.850Z,99937.31
2022-09-23T22:47:37.583Z,99935.09
2022-09-23T22:50:10.312Z,99937.94
2022-09-23T22:52:42.882Z,99939.06
2022-09-23T22:55:13.491Z,99939.75
2022-09-23T22:57:44.746Z,99939.31
2022-09-23T23:00:15.626Z,99939.88
2022-09-23T23:02:46.168Z,99940.72
2022-09-23T23:05:15.905Z,99946.38
2022-09-23T23:07:45.800Z,99942.41
2022-09-23T23:10:17.226Z,99948.31
2022-09-23T23:12:49.227Z,99941.72
2022-09-23T23:15:19.429Z,99942.69
2022-09-23T23:17:49.645Z,99944.63
2022-09-23T23:20:20.109Z,99944.22
2022-09-23T23:22:50.650Z,99939.84
2022-09-23T23:25:20.389Z,99949.28
2022-09-23T23:27:51.597Z,99943.19
2022-09-23T23:30:21.321Z,99933.13
2022-09-23T23:32:51.143Z,99936.34
2022-09-23T23:35:20.885Z,99947.09
2022-09-23T23:37:50.638Z,99942.03
2022-09-23T23:40:22.864Z,99941.41
2022-09-23T23:42:54.106Z,99933.81
2022-09-23T23:45:23.840Z,99941.75
2022-09-23T23:47:53.605Z,99931.28
2022-09-23T23:50:23.553Z,99940.59
2022-09-23T23:52:53.276Z,99936.63
2022-09-23T23:55:23.132Z,99933.81
2022-09-23T23:57:54.323Z,99929.69
